Hauptseite
METAR-TAF:

METAR-TAF

Flughäfen :

Orange County Airport

Montgomery, New York, Vereinigte Staaten

Breite: 41-30-33N, Länge: 074-15-54W, Höhe: 111 m

Beobachtung

Neuester Wetterbericht von vor 13 Minuten, um 05:28 UTC
Windstille
Temperatur 16°C
Luftfeuchtigkeit 100%
Luftdruck 1007 hPa
Sichtweite: 2.8 km
Himmel klar
feuchter Dunst

METAR: KMGJ 040528Z AUTO 00000KT 1 3/4SM BR CLR 16/16 A2975 RMK AO2 T01560156

Zeit: 01:41 (05:41 UTC)


TAF: fehlend

Wetterbeobachtungen und Prognosen von mehr als 4000 Flughäfen (METAR und TAF Bericht).

Die verfügbaren Stationen werden durch gelbe und rote Markierungen auf der Karte dargestellt.

Führen Sie die Maus auf sie, um den Namen der Station zu sehen.

Darauf klicken, um die Beobachtung von Wetterbeobachtungen und Prognosen zu sehen.

Um die Karte zu ändern : klicken Sie auf den grünen Tasten mit einem schwarzen Kreuz Zum Vergrößern, auf den grünen Button mit einem Gedankenstrich zu verkleinern, oder auf die grünen Pfeile für benachbarte Karten.


METAR-TAF: